West Danby, New York
Current Conditions -  °F | °C
As of 2:56 AM on Sunday 26 Oct 2014 (Local Time) from KITH Reporting Station
Broken Clouds Broken Clouds  
Wind Chill: 41°   Ceiling: 6000
Heat Index: 46°   Visibility: 10mi
Dew Point: 41°   Wind: 9mph
Humidity: 83%   Direction: 290°WNW
Pressure: 29.63"   Gusts: NA
Location:  42.2433°N, 76.4852°W
Report Text: KITH 260656Z AUTO 29008KT 10SM BKN060 08/05 A2963 RMK AO2 T00770050 SLP033
Loading
Personal Weather Stations






























Interactive Weather Map
Tropical Storm Tracking
New forecast layout! Learn more

10-Day Weather Forecast

Advertisements
Track Severe Weather on mobile